createdAt,value
2023-02-24T00:02:20.135Z,8.56
2023-02-24T00:05:12.812Z,8.58
2023-02-24T00:08:04.871Z,8.60
2023-02-24T00:10:57.667Z,8.63
2023-02-24T00:13:49.748Z,8.72
2023-02-24T00:16:25.594Z,8.75
2023-02-24T00:19:20.619Z,8.80
2023-02-24T00:22:12.802Z,8.84
2023-02-24T00:25:05.089Z,8.86
2023-02-24T00:28:17.604Z,8.87
2023-02-24T00:31:14.201Z,8.87
2023-02-24T00:34:06.866Z,8.86
2023-02-24T00:36:59.412Z,8.85
2023-02-24T00:39:51.691Z,8.84
2023-02-24T00:42:43.813Z,8.84
2023-02-24T00:45:39.206Z,8.82
2023-02-24T00:48:31.518Z,8.79
2023-02-24T00:51:27.072Z,8.77
2023-02-24T00:54:19.633Z,8.78
2023-02-24T00:57:12.260Z,8.78
2023-02-24T01:00:10.235Z,8.77
2023-02-24T01:03:02.330Z,8.76
2023-02-24T01:05:54.925Z,8.75
2023-02-24T01:08:47.616Z,8.76
2023-02-24T01:11:57.619Z,8.75
2023-02-24T01:14:51.017Z,8.74
2023-02-24T01:17:43.294Z,8.71
2023-02-24T01:20:38.040Z,8.71
2023-02-24T01:23:20.283Z,8.69
2023-02-24T01:26:12.695Z,8.67
2023-02-24T01:29:05.152Z,8.65
2023-02-24T01:31:58.685Z,8.64
2023-02-24T01:34:54.073Z,8.74
2023-02-24T01:37:46.340Z,8.78
2023-02-24T01:40:38.866Z,8.84
2023-02-24T01:43:31.000Z,8.87
2023-02-24T01:46:24.026Z,8.88
2023-02-24T01:49:20.257Z,8.92
2023-02-24T01:52:14.698Z,8.94
2023-02-24T01:55:14.295Z,8.96
2023-02-24T01:58:12.051Z,8.99
2023-02-24T02:01:09.062Z,8.99
2023-02-24T02:04:09.121Z,8.97
2023-02-24T02:07:01.520Z,8.93
2023-02-24T02:09:54.952Z,8.91
2023-02-24T02:12:47.906Z,8.90
2023-02-24T02:15:47.893Z,8.88
2023-02-24T02:18:48.909Z,8.87
2023-02-24T02:22:07.986Z,8.87
2023-02-24T02:25:09.428Z,8.87
2023-02-24T02:28:20.860Z,8.86
2023-02-24T02:31:59.405Z,8.86
2023-02-24T02:34:57.562Z,8.84
2023-02-24T02:37:56.278Z,8.82
2023-02-24T02:40:45.719Z,8.82
2023-02-24T02:43:42.851Z,8.80
2023-02-24T02:46:39.948Z,8.82
2023-02-24T02:49:37.234Z,8.92
2023-02-24T02:52:36.412Z,8.95
2023-02-24T02:55:15.668Z,8.97
2023-02-24T02:58:14.832Z,8.99
2023-02-24T03:01:08.625Z,9.02
2023-02-24T03:04:05.743Z,9.07
2023-02-24T03:07:02.429Z,9.09
2023-02-24T03:09:58.224Z,9.09
2023-02-24T03:12:53.879Z,9.08
2023-02-24T03:15:47.636Z,9.04
2023-02-24T03:18:44.720Z,9.03
2023-02-24T03:21:40.702Z,9.02
2023-02-24T03:24:36.442Z,8.99
2023-02-24T03:27:44.510Z,8.97
2023-02-24T03:30:43.597Z,8.92
2023-02-24T03:33:30.699Z,8.90
2023-02-24T03:36:23.213Z,8.90
2023-02-24T03:39:01.940Z,8.90
2023-02-24T03:41:58.272Z,8.89
2023-02-24T03:44:51.411Z,8.97
2023-02-24T03:47:46.618Z,8.94
2023-02-24T03:50:39.885Z,8.96
2023-02-24T03:53:42.489Z,8.94
2023-02-24T03:56:45.878Z,8.90
2023-02-24T03:59:47.604Z,8.87
2023-02-24T04:02:39.824Z,8.87
2023-02-24T04:05:34.584Z,8.85
2023-02-24T04:08:20.115Z,8.82
2023-02-24T04:11:05.433Z,8.80
2023-02-24T04:14:06.385Z,8.73
2023-02-24T04:17:05.576Z,8.68
2023-02-24T04:20:09.141Z,8.61
2023-02-24T04:23:08.658Z,8.55
2023-02-24T04:26:01.298Z,8.54
2023-02-24T04:28:53.906Z,8.49
2023-02-24T04:31:47.396Z,8.47
2023-02-24T04:34:41.610Z,8.46
2023-02-24T04:37:37.313Z,8.45
2023-02-24T04:40:29.675Z,8.42
2023-02-24T04:43:21.862Z,8.41
2023-02-24T04:46:14.053Z,8.39
2023-02-24T04:49:06.190Z,8.38
2023-02-24T04:51:58.281Z,8.46
2023-02-24T04:54:35.668Z,8.51
2023-02-24T04:57:28.023Z,8.52
2023-02-24T05:00:22.522Z,8.55
2023-02-24T05:03:15.040Z,8.53
2023-02-24T05:06:08.641Z,8.55
2023-02-24T05:08:46.116Z,8.54
2023-02-24T05:11:38.404Z,8.52
2023-02-24T05:14:31.067Z,8.50
2023-02-24T05:17:24.409Z,8.49
2023-02-24T05:20:34.381Z,8.43
2023-02-24T05:23:31.826Z,8.40
2023-02-24T05:26:25.725Z,8.37
2023-02-24T05:29:18.317Z,8.42
2023-02-24T05:32:10.900Z,8.48
2023-02-24T05:35:03.301Z,8.50
2023-02-24T05:37:59.192Z,8.49
2023-02-24T05:40:55.358Z,8.51
2023-02-24T05:43:53.093Z,8.51
2023-02-24T05:46:47.246Z,8.54
2023-02-24T05:49:39.854Z,8.54
2023-02-24T05:52:32.250Z,8.51
2023-02-24T05:55:24.373Z,8.50
2023-02-24T05:58:16.539Z,8.50
2023-02-24T06:01:16.539Z,8.49
2023-02-24T06:04:10.015Z,8.45
2023-02-24T06:07:03.708Z,8.44
2023-02-24T06:09:57.642Z,8.51
2023-02-24T06:12:49.871Z,8.51
2023-02-24T06:15:47.929Z,8.50
2023-02-24T06:18:40.843Z,8.55
2023-02-24T06:21:33.005Z,8.55
2023-02-24T06:24:26.954Z,8.54
2023-02-24T06:27:10.755Z,8.53
2023-02-24T06:30:03.655Z,8.52
2023-02-24T06:32:57.094Z,8.50
2023-02-24T06:35:49.324Z,8.48
2023-02-24T06:38:42.184Z,8.48
2023-02-24T06:41:34.653Z,8.47
2023-02-24T06:44:27.268Z,8.53
2023-02-24T06:47:19.470Z,8.53
2023-02-24T06:50:13.232Z,8.54
2023-02-24T06:53:10.008Z,8.55
2023-02-24T06:55:46.472Z,8.54
2023-02-24T06:58:39.255Z,8.54
2023-02-24T07:01:31.598Z,8.56
2023-02-24T07:04:27.884Z,8.54
2023-02-24T07:07:20.786Z,8.55
2023-02-24T07:10:14.305Z,8.51
2023-02-24T07:13:06.628Z,8.46
2023-02-24T07:16:02.062Z,8.43
2023-02-24T07:18:56.614Z,8.47
2023-02-24T07:21:50.282Z,8.43
2023-02-24T07:24:46.213Z,8.41
2023-02-24T07:27:38.484Z,8.40
2023-02-24T07:30:33.188Z,8.41
2023-02-24T07:33:25.463Z,8.44
2023-02-24T07:36:23.239Z,8.44
2023-02-24T07:39:15.952Z,8.42
2023-02-24T07:42:09.686Z,8.39
2023-02-24T07:45:03.011Z,8.37
2023-02-24T07:47:55.403Z,8.44
2023-02-24T07:50:47.884Z,8.45
2023-02-24T07:53:40.812Z,8.47
2023-02-24T07:56:33.607Z,8.50
2023-02-24T07:59:28.242Z,8.52
2023-02-24T08:02:20.420Z,8.49
2023-02-24T08:05:13.200Z,8.44
2023-02-24T08:08:05.725Z,8.44
2023-02-24T08:11:04.027Z,8.47
2023-02-24T08:13:59.191Z,8.54
2023-02-24T08:16:53.008Z,8.56
2023-02-24T08:19:46.792Z,8.61
2023-02-24T08:22:43.802Z,8.68
2023-02-24T08:25:44.462Z,8.69
2023-02-24T08:28:39.468Z,8.73
2023-02-24T08:31:32.779Z,8.76
2023-02-24T08:34:35.766Z,8.77
2023-02-24T08:37:33.436Z,8.79
2023-02-24T08:40:50.165Z,8.75
2023-02-24T08:43:46.352Z,8.77
2023-02-24T08:46:39.851Z,8.86
2023-02-24T08:49:33.295Z,8.89
2023-02-24T08:52:27.293Z,8.93
2023-02-24T08:55:23.055Z,8.93
2023-02-24T08:58:18.483Z,8.93
2023-02-24T09:01:19.056Z,8.95
2023-02-24T09:04:13.471Z,8.94
2023-02-24T09:07:12.044Z,8.96
2023-02-24T09:10:05.528Z,8.98
2023-02-24T09:12:57.666Z,8.97
2023-02-24T09:15:51.207Z,9.03
2023-02-24T09:18:43.813Z,9.16
2023-02-24T09:21:53.678Z,9.18
2023-02-24T09:24:46.216Z,9.21
2023-02-24T09:27:42.238Z,9.24
2023-02-24T09:30:39.009Z,9.20
2023-02-24T09:33:38.838Z,9.22
2023-02-24T09:36:42.616Z,9.21
2023-02-24T09:40:09.548Z,9.19
2023-02-24T09:43:11.021Z,9.10
2023-02-24T09:46:14.561Z,9.06
2023-02-24T09:49:17.260Z,9.10
2023-02-24T09:52:17.006Z,9.09
2023-02-24T09:55:29.471Z,9.07
2023-02-24T09:58:41.792Z,9.10
2023-02-24T10:01:43.791Z,9.12
2023-02-24T10:05:07.119Z,9.13
2023-02-24T10:07:52.172Z,9.10
2023-02-24T10:11:00.870Z,9.09
2023-02-24T10:14:03.365Z,9.08
2023-02-24T10:17:15.191Z,9.16
2023-02-24T10:20:02.395Z,9.28
2023-02-24T10:23:00.328Z,9.35
2023-02-24T10:26:06.670Z,9.46
2023-02-24T10:29:09.096Z,9.67
2023-02-24T10:32:23.511Z,9.80
2023-02-24T10:35:20.256Z,9.88
2023-02-24T10:38:12.519Z,9.86
2023-02-24T10:41:06.345Z,9.88
2023-02-24T10:43:59.243Z,9.90
2023-02-24T10:47:11.467Z,9.92
2023-02-24T10:50:06.424Z,10.05
2023-02-24T10:53:26.002Z,10.20
2023-02-24T10:56:39.937Z,10.33
2023-02-24T10:59:58.382Z,10.68
2023-02-24T11:03:09.270Z,11.80
2023-02-24T11:06:20.138Z,13.28
2023-02-24T11:09:32.050Z,14.86
2023-02-24T11:12:40.373Z,15.89
2023-02-24T11:15:54.020Z,15.61
2023-02-24T11:18:50.053Z,15.22
2023-02-24T11:21:42.897Z,14.93
2023-02-24T11:24:38.402Z,14.31
2023-02-24T11:27:30.615Z,13.84
2023-02-24T11:30:32.906Z,13.44
2023-02-24T11:33:35.077Z,12.94
2023-02-24T11:36:39.472Z,12.48
2023-02-24T11:39:48.471Z,12.15
2023-02-24T11:42:49.093Z,11.88
2023-02-24T11:45:46.368Z,11.74
2023-02-24T11:48:23.704Z,11.72
2023-02-24T11:51:21.024Z,11.77
2023-02-24T11:54:17.582Z,11.89
2023-02-24T11:57:17.613Z,11.92
2023-02-24T12:00:20.105Z,11.87
2023-02-24T12:03:19.483Z,11.87
2023-02-24T12:06:22.010Z,11.86
2023-02-24T12:09:20.352Z,11.81
2023-02-24T12:12:19.333Z,11.81
2023-02-24T12:15:20.475Z,11.81
2023-02-24T12:18:21.046Z,11.75
2023-02-24T12:21:18.372Z,11.63
2023-02-24T12:24:14.464Z,11.50
2023-02-24T12:27:20.992Z,11.34
2023-02-24T12:30:48.862Z,11.23
2023-02-24T12:33:52.152Z,11.21
2023-02-24T12:37:07.546Z,11.14
2023-02-24T12:40:13.654Z,11.06
2023-02-24T12:43:19.848Z,10.90
2023-02-24T12:46:22.151Z,10.83
2023-02-24T12:49:40.276Z,10.80
2023-02-24T12:52:41.472Z,10.81
2023-02-24T12:55:43.430Z,10.82
2023-02-24T12:58:38.314Z,10.82
2023-02-24T13:01:38.004Z,10.80
2023-02-24T13:04:44.721Z,10.75
2023-02-24T13:07:51.942Z,10.75
2023-02-24T13:10:50.624Z,10.69
2023-02-24T13:13:48.836Z,10.68
2023-02-24T13:16:41.697Z,10.60
2023-02-24T13:19:34.113Z,10.51
2023-02-24T13:22:30.303Z,10.45
2023-02-24T13:25:23.547Z,10.42
2023-02-24T13:28:27.093Z,10.41
2023-02-24T13:31:23.754Z,10.34
2023-02-24T13:34:29.792Z,10.28
2023-02-24T13:37:32.958Z,10.24
2023-02-24T13:40:28.216Z,10.24
2023-02-24T13:43:31.121Z,10.34
2023-02-24T13:46:23.298Z,10.37
2023-02-24T13:49:28.523Z,10.46
2023-02-24T13:52:32.556Z,10.53
2023-02-24T13:55:41.141Z,10.58
2023-02-24T13:59:01.619Z,10.60
2023-02-24T14:02:02.297Z,10.56
2023-02-24T14:04:57.024Z,10.54
2023-02-24T14:07:53.155Z,10.52
2023-02-24T14:10:51.448Z,10.45
2023-02-24T14:13:49.414Z,10.37
2023-02-24T14:16:42.705Z,10.29
2023-02-24T14:19:34.895Z,10.24
2023-02-24T14:22:27.053Z,10.19
2023-02-24T14:25:20.018Z,10.22
2023-02-24T14:27:56.617Z,10.07
2023-02-24T14:30:58.116Z,9.94
2023-02-24T14:33:59.378Z,9.85
2023-02-24T14:36:53.836Z,9.77
2023-02-24T14:39:53.702Z,9.73
2023-02-24T14:42:51.064Z,9.67
2023-02-24T14:45:50.922Z,9.66
2023-02-24T14:48:44.276Z,9.63
2023-02-24T14:51:24.645Z,9.63
2023-02-24T14:54:16.804Z,9.71
2023-02-24T14:57:12.613Z,9.76
2023-02-24T15:00:11.736Z,9.89
2023-02-24T15:03:12.510Z,10.02
2023-02-24T15:06:12.980Z,10.14
2023-02-24T15:09:12.994Z,10.26
2023-02-24T15:12:13.378Z,10.29
2023-02-24T15:15:09.032Z,10.29
2023-02-24T15:18:04.753Z,10.20
2023-02-24T15:21:04.548Z,10.04
2023-02-24T15:24:02.767Z,9.94
2023-02-24T15:26:58.316Z,9.86
2023-02-24T15:30:02.166Z,9.81
2023-02-24T15:32:40.114Z,9.79
2023-02-24T15:35:34.297Z,9.78
2023-02-24T15:38:30.737Z,9.78
2023-02-24T15:41:23.300Z,9.81
2023-02-24T15:44:29.425Z,9.82
2023-02-24T15:47:25.189Z,9.82
2023-02-24T15:50:17.620Z,9.81
2023-02-24T15:53:12.987Z,9.82
2023-02-24T15:56:06.048Z,9.81
2023-02-24T15:59:02.475Z,9.72
2023-02-24T16:01:55.014Z,9.63
2023-02-24T16:04:37.180Z,9.53
2023-02-24T16:07:34.677Z,9.42
2023-02-24T16:10:29.331Z,9.31
2023-02-24T16:13:25.005Z,9.24
2023-02-24T16:16:17.232Z,9.29
2023-02-24T16:19:05.700Z,9.35
2023-02-24T16:21:57.827Z,9.40
2023-02-24T16:24:49.935Z,9.44
2023-02-24T16:27:42.061Z,9.42
2023-02-24T16:30:35.506Z,9.32
2023-02-24T16:33:15.415Z,9.29
2023-02-24T16:36:13.051Z,9.28
2023-02-24T16:39:05.864Z,9.25
2023-02-24T16:41:59.291Z,9.22
2023-02-24T16:44:52.066Z,9.21
2023-02-24T16:47:45.229Z,9.21
2023-02-24T16:50:39.738Z,9.21
2023-02-24T16:53:32.232Z,9.23
2023-02-24T16:56:24.496Z,9.28
2023-02-24T16:59:05.773Z,9.39
2023-02-24T17:01:59.560Z,9.45
2023-02-24T17:04:51.642Z,9.51
2023-02-24T17:07:43.759Z,9.57
2023-02-24T17:10:39.173Z,9.57
2023-02-24T17:13:31.233Z,9.47
2023-02-24T17:16:23.833Z,9.44
2023-02-24T17:19:16.414Z,9.45
2023-02-24T17:22:08.584Z,9.41
2023-02-24T17:25:01.129Z,9.36
2023-02-24T17:27:53.267Z,9.31
2023-02-24T17:30:45.600Z,9.16
2023-02-24T17:33:37.787Z,8.98
2023-02-24T17:36:30.249Z,8.93
2023-02-24T17:39:22.393Z,8.95
2023-02-24T17:42:14.632Z,8.87
2023-02-24T17:45:08.089Z,8.79
2023-02-24T17:48:00.117Z,8.74
2023-02-24T17:50:53.443Z,8.69
2023-02-24T17:53:45.567Z,8.62
2023-02-24T17:56:37.668Z,8.54
2023-02-24T17:59:29.771Z,8.45
2023-02-24T18:02:22.387Z,8.38
2023-02-24T18:05:14.671Z,8.31
2023-02-24T18:08:07.075Z,8.29
2023-02-24T18:11:00.914Z,8.24
2023-02-24T18:13:55.141Z,8.21
2023-02-24T18:16:31.036Z,8.21
2023-02-24T18:19:23.206Z,8.17
2023-02-24T18:22:05.978Z,8.21
2023-02-24T18:24:59.202Z,8.21
2023-02-24T18:27:34.575Z,8.19
2023-02-24T18:30:26.642Z,8.19
2023-02-24T18:33:18.903Z,8.13
2023-02-24T18:36:12.402Z,8.07
2023-02-24T18:39:05.009Z,8.09
2023-02-24T18:41:59.490Z,8.04
2023-02-24T18:44:51.738Z,7.99
2023-02-24T18:47:43.833Z,7.95
2023-02-24T18:50:36.641Z,7.90
2023-02-24T18:53:34.103Z,7.84
2023-02-24T18:56:28.255Z,7.78
2023-02-24T18:59:20.466Z,7.76
2023-02-24T19:02:13.563Z,7.80
2023-02-24T19:05:06.235Z,7.86
2023-02-24T19:07:38.163Z,7.90
2023-02-24T19:10:31.025Z,7.95
2023-02-24T19:13:03.224Z,8.00
2023-02-24T19:15:55.313Z,8.02
2023-02-24T19:18:50.402Z,7.99
2023-02-24T19:21:45.228Z,7.91
2023-02-24T19:24:37.460Z,7.88
2023-02-24T19:27:29.590Z,7.89
2023-02-24T19:30:21.761Z,7.86
2023-02-24T19:33:13.965Z,7.87
2023-02-24T19:36:06.686Z,7.85
2023-02-24T19:38:58.890Z,7.80
2023-02-24T19:41:51.068Z,7.73
2023-02-24T19:44:43.184Z,7.70
2023-02-24T19:47:35.578Z,7.73
2023-02-24T19:50:28.158Z,7.73
2023-02-24T19:53:20.277Z,7.74
2023-02-24T19:56:12.506Z,7.78
2023-02-24T19:58:57.479Z,7.83
2023-02-24T20:01:54.318Z,7.86
2023-02-24T20:04:46.705Z,7.88
2023-02-24T20:07:39.699Z,7.88
2023-02-24T20:10:31.807Z,7.86
2023-02-24T20:13:24.262Z,7.85
2023-02-24T20:16:21.081Z,7.83
2023-02-24T20:19:15.280Z,7.81
2023-02-24T20:22:07.395Z,7.78
2023-02-24T20:24:59.500Z,7.74
2023-02-24T20:27:51.614Z,7.69
2023-02-24T20:30:43.771Z,7.69
2023-02-24T20:33:35.823Z,7.77
2023-02-24T20:36:29.776Z,7.77
2023-02-24T20:39:24.778Z,7.77
2023-02-24T20:42:16.904Z,7.74
2023-02-24T20:45:12.283Z,7.73
2023-02-24T20:47:47.378Z,7.74
2023-02-24T20:50:39.694Z,7.79
2023-02-24T20:53:32.101Z,7.82
2023-02-24T20:56:24.783Z,7.85
2023-02-24T20:59:19.602Z,7.85
2023-02-24T21:02:13.488Z,7.81
2023-02-24T21:05:06.058Z,7.81
2023-02-24T21:07:42.990Z,7.81
2023-02-24T21:10:35.065Z,7.81
2023-02-24T21:13:27.242Z,7.80
2023-02-24T21:16:22.152Z,7.82
2023-02-24T21:19:14.811Z,7.88
2023-02-24T21:22:07.450Z,7.88
2023-02-24T21:24:59.705Z,7.91
2023-02-24T21:27:51.804Z,7.97
2023-02-24T21:30:43.649Z,8.01
2023-02-24T21:33:35.815Z,7.97
2023-02-24T21:36:28.063Z,7.95
2023-02-24T21:39:20.812Z,7.99
2023-02-24T21:42:13.185Z,8.03
2023-02-24T21:45:09.708Z,8.04
2023-02-24T21:48:01.777Z,8.04
2023-02-24T21:51:03.578Z,8.00
2023-02-24T21:53:56.849Z,7.93
2023-02-24T21:56:49.036Z,7.86
2023-02-24T21:59:41.169Z,7.84
2023-02-24T22:02:33.293Z,7.82
2023-02-24T22:05:26.986Z,7.87
2023-02-24T22:08:19.137Z,7.88
2023-02-24T22:11:12.276Z,7.91
2023-02-24T22:14:04.440Z,7.93
2023-02-24T22:16:56.588Z,7.97
2023-02-24T22:19:49.735Z,8.00
2023-02-24T22:22:40.032Z,8.02
2023-02-24T22:25:32.242Z,8.02
2023-02-24T22:28:24.386Z,8.03
2023-02-24T22:31:19.245Z,8.05
2023-02-24T22:34:12.350Z,8.03
2023-02-24T22:36:47.305Z,8.01
2023-02-24T22:39:39.414Z,7.98
2023-02-24T22:42:31.478Z,7.94
2023-02-24T22:45:23.538Z,7.95
2023-02-24T22:48:15.639Z,8.03
2023-02-24T22:51:10.756Z,8.02
2023-02-24T22:54:03.197Z,8.06
2023-02-24T22:56:56.808Z,8.11
2023-02-24T22:59:49.106Z,8.17
2023-02-24T23:02:41.597Z,8.20
2023-02-24T23:05:33.832Z,8.23
2023-02-24T23:08:26.443Z,8.24
2023-02-24T23:11:21.477Z,8.23
2023-02-24T23:14:15.153Z,8.20
2023-02-24T23:17:07.312Z,8.17
2023-02-24T23:19:59.641Z,8.14
2023-02-24T23:22:34.449Z,8.13
2023-02-24T23:25:26.686Z,8.12
2023-02-24T23:28:19.116Z,8.10
2023-02-24T23:31:11.302Z,8.08
2023-02-24T23:34:21.519Z,8.14
2023-02-24T23:37:14.361Z,8.16
2023-02-24T23:40:09.211Z,8.18
2023-02-24T23:43:01.327Z,8.22
2023-02-24T23:45:53.456Z,8.25
2023-02-24T23:48:45.703Z,8.26
2023-02-24T23:51:48.111Z,8.27
2023-02-24T23:54:40.816Z,8.25
2023-02-24T23:57:32.836Z,8.21
